Time;durP1;ratioP1;P1;durP2;ratioP2;P2;SDS_P1;SDS_P2;PMS_P1;PMS_P2;Temp;Humidity;BMP_temperature;BMP_pressure;BME280_temperature;BME280_humidity;BME280_pressure;Samples;Min_cycle;Max_cycle;Signal;HPM_P1;HPM_P2
2023/06/20 00:01:46;;;;;;;7.65;5.85;;;;;;;19.70;58.12;94779.41;4202705;28;20044;-58
2023/06/20 00:03:48;;;;;;;7.60;5.68;;;;;;;19.68;57.76;94775.31;4205766;28;20044;-58
2023/06/20 00:05:49;;;;;;;6.80;5.75;;;;;;;19.70;57.94;94770.63;4203966;28;20044;-57
2023/06/20 00:07:54;;;;;;;6.95;6.03;;;;;;;19.67;57.45;94776.34;4208040;28;20055;-56
2023/06/20 00:09:55;;;;;;;6.78;5.75;;;;;;;19.63;57.53;94776.78;4204007;28;20044;-58
2023/06/20 00:11:57;;;;;;;8.55;5.80;;;;;;;19.63;57.32;94771.44;4207781;28;20499;-57
2023/06/20 00:13:59;;;;;;;8.25;6.10;;;;;;;19.58;57.28;94786.44;4209487;28;20208;-58
2023/06/20 00:16:01;;;;;;;9.02;6.40;;;;;;;19.44;57.36;94783.84;4202703;28;20055;-55
2023/06/20 00:18:02;;;;;;;6.65;5.53;;;;;;;19.35;57.44;94785.09;4196199;28;20416;-58
2023/06/20 00:20:06;;;;;;;6.75;5.45;;;;;;;19.33;57.32;94770.41;4209114;28;20060;-58
2023/06/20 00:22:08;;;;;;;8.15;5.75;;;;;;;19.36;57.24;94772.63;4210885;28;20632;-58
2023/06/20 00:24:10;;;;;;;9.63;5.57;;;;;;;19.33;57.19;94775.72;4210259;28;20055;-57
2023/06/20 00:26:11;;;;;;;6.57;5.70;;;;;;;19.29;57.14;94777.97;4209546;28;20058;-55
2023/06/20 00:28:16;;;;;;;6.68;5.70;;;;;;;19.22;57.15;94770.03;4200979;28;20356;-57
2023/06/20 00:30:18;;;;;;;7.05;5.95;;;;;;;19.17;57.47;94774.34;4206467;28;20485;-56
2023/06/20 00:32:19;;;;;;;6.85;5.15;;;;;;;19.20;57.41;94773.91;4210083;28;20487;-58
2023/06/20 00:34:21;;;;;;;8.63;5.95;;;;;;;19.16;57.48;94770.06;4204757;28;20144;-54
2023/06/20 00:36:25;;;;;;;10.88;5.95;;;;;;;19.18;57.33;94774.13;4210250;28;20098;-57
2023/06/20 00:38:29;;;;;;;6.15;5.35;;;;;;;19.14;57.25;94777.41;4209820;28;20527;-56
2023/06/20 00:40:30;;;;;;;7.38;5.95;;;;;;;19.09;57.42;94775.38;4204120;28;20254;-57
2023/06/20 00:42:32;;;;;;;7.63;5.90;;;;;;;19.06;57.73;94767.03;4210523;28;20047;-59
2023/06/20 00:44:34;;;;;;;13.00;5.50;;;;;;;19.09;57.67;94772.75;4210126;28;20485;-55
2023/06/20 00:46:38;;;;;;;6.95;5.75;;;;;;;19.13;57.69;94775.78;4207811;28;20135;-55
2023/06/20 00:48:39;;;;;;;;;;;;;;;19.19;57.43;94767.81;4206345;28;20062;-56
2023/06/20 00:50:41;;;;;;;6.53;5.82;;;;;;;19.25;57.42;94774.09;4208402;28;19927;-55
2023/06/20 00:52:44;;;;;;;7.90;5.55;;;;;;;19.27;57.47;94763.25;4208035;28;20050;-54
2023/06/20 00:54:47;;;;;;;7.28;5.68;;;;;;;19.27;57.37;94764.06;4204173;28;20140;-54
2023/06/20 00:56:49;;;;;;;6.75;6.05;;;;;;;19.29;57.48;94767.34;4208847;28;20510;-58
2023/06/20 00:58:51;;;;;;;6.57;5.70;;;;;;;19.25;57.89;94758.16;4204417;28;20516;-58
2023/06/20 01:00:52;;;;;;;12.93;6.20;;;;;;;19.24;58.13;94759.19;4203564;28;21359;-57
2023/06/20 01:02:56;;;;;;;7.50;5.60;;;;;;;19.24;58.07;94760.00;4200643;28;20064;-58
2023/06/20 01:04:58;;;;;;;8.27;5.80;;;;;;;19.22;58.34;94761.25;4194240;28;20146;-55
2023/06/20 01:07:05;;;;;;;7.88;5.93;;;;;;;19.22;58.61;94764.72;4201956;28;20419;-53
2023/06/20 01:09:22;;;;;;;8.45;5.55;;;;;;;19.20;58.78;94766.75;4205792;28;20081;-53
2023/06/20 01:11:34;;;;;;;7.38;6.28;;;;;;;19.19;58.95;94764.34;4208761;28;20121;-56
2023/06/20 01:13:39;;;;;;;9.73;6.32;;;;;;;19.17;59.41;94767.19;4204178;28;20139;-53
2023/06/20 01:16:06;;;;;;;9.25;7.88;;;;;;;19.17;60.67;94764.53;4205790;28;20060;-55
2023/06/20 01:18:25;;;;;;;11.15;7.75;;;;;;;19.17;60.84;94767.19;4196952;28;20080;-53
2023/06/20 01:20:37;;;;;;;8.65;6.32;;;;;;;19.09;60.47;94762.13;4208505;28;20044;-55
2023/06/20 01:23:05;;;;;;;12.30;7.28;;;;;;;18.93;59.99;94757.25;4198831;28;20056;-57
2023/06/20 01:25:11;;;;;;;11.48;6.35;;;;;;;18.83;60.23;94758.53;4208753;28;20131;-54
2023/06/20 01:27:24;;;;;;;11.50;6.88;;;;;;;18.81;60.45;94762.41;4204890;28;20055;-53
2023/06/20 01:29:36;;;;;;;7.68;6.45;;;;;;;18.78;60.35;94761.00;4203161;28;20048;-54
2023/06/20 01:31:40;;;;;;;9.57;6.90;;;;;;;18.75;60.38;94763.22;4208684;28;20048;-57
2023/06/20 01:33:42;;;;;;;;;;;;;;;18.66;60.59;94757.31;4206413;28;20592;-56
2023/06/20 01:35:45;;;;;;;9.93;7.93;;;;;;;18.60;61.48;94761.59;4207965;28;19989;-56
2023/06/20 01:37:51;;;;;;;13.93;7.70;;;;;;;18.57;62.38;94764.69;4208926;28;20600;-55
2023/06/20 01:39:56;;;;;;;10.50;7.47;;;;;;;18.52;62.37;94761.00;4209375;28;20650;-56
2023/06/20 01:42:02;;;;;;;11.27;7.28;;;;;;;18.34;62.67;94762.47;4209634;28;20569;-55
2023/06/20 01:44:06;;;;;;;13.90;7.53;;;;;;;18.28;62.98;94770.41;4213467;28;20048;-57
2023/06/20 01:46:09;;;;;;;7.50;6.28;;;;;;;18.29;62.46;94770.22;4210991;28;20071;-53
2023/06/20 01:48:11;;;;;;;8.65;6.30;;;;;;;18.34;61.66;94770.41;4210709;28;20132;-51
2023/06/20 01:50:13;;;;;;;7.55;6.75;;;;;;;18.42;60.84;94769.41;4212126;28;20134;-54
2023/06/20 01:52:16;;;;;;;7.20;6.38;;;;;;;18.48;60.67;94776.53;4210861;28;20052;-57
2023/06/20 01:54:18;;;;;;;8.23;6.63;;;;;;;18.56;60.09;94775.50;4211993;28;20056;-58
2023/06/20 01:56:20;;;;;;;9.48;7.25;;;;;;;18.61;60.27;94775.69;4213441;28;20050;-58
2023/06/20 01:58:23;;;;;;;10.68;6.43;;;;;;;18.62;59.74;94775.47;4210146;28;20064;-58
2023/06/20 02:00:26;;;;;;;8.73;6.30;;;;;;;18.64;59.79;94772.63;4209607;28;20081;-59
2023/06/20 02:02:29;;;;;;;8.48;6.57;;;;;;;18.68;59.72;94779.16;4211022;28;20500;-58
2023/06/20 02:04:33;;;;;;;8.90;7.00;;;;;;;18.56;60.19;94778.13;4205649;28;20049;-57
2023/06/20 02:06:34;;;;;;;;;;;;;;;18.35;60.92;94781.84;4198285;28;20481;-57
2023/06/20 02:08:37;;;;;;;7.68;6.63;;;;;;;18.36;60.97;94775.53;4202187;28;19920;-59
2023/06/20 02:10:39;;;;;;;10.35;7.93;;;;;;;18.39;60.98;94778.59;4211481;28;20131;-58
2023/06/20 02:12:43;;;;;;;8.47;6.97;;;;;;;18.43;61.05;94768.38;4211521;28;20094;-58
2023/06/20 02:14:45;;;;;;;8.40;6.95;;;;;;;18.45;61.08;94762.84;4197503;28;20060;-58
2023/06/20 02:16:48;;;;;;;8.05;7.00;;;;;;;18.45;61.31;94771.63;4202250;28;20052;-57
2023/06/20 02:18:50;;;;;;;8.53;7.63;;;;;;;18.50;61.22;94769.19;4200093;28;20044;-57
2023/06/20 02:20:53;;;;;;;10.15;7.75;;;;;;;18.50;61.48;94778.97;4200148;28;20826;-59
2023/06/20 02:22:55;;;;;;;8.93;7.78;;;;;;;18.39;62.01;94775.94;4197257;28;20056;-57
2023/06/20 02:25:01;;;;;;;11.55;7.88;;;;;;;18.19;62.87;94772.47;4205474;28;20052;-59
2023/06/20 02:27:05;;;;;;;10.57;8.10;;;;;;;17.99;63.83;94770.63;4210706;28;20081;-55
2023/06/20 02:29:07;;;;;;;;;;;;;;;17.99;64.28;94775.94;4208363;28;20056;-56
2023/06/20 02:31:11;;;;;;;11.88;8.73;;;;;;;17.80;65.23;94774.03;4211119;28;19920;-60
2023/06/20 02:33:14;;;;;;;14.68;9.27;;;;;;;17.78;65.44;94774.22;4205303;28;20087;-57
2023/06/20 02:35:16;;;;;;;13.38;8.82;;;;;;;17.79;65.47;94773.22;4208241;28;20577;-57
2023/06/20 02:37:17;;;;;;;11.73;8.45;;;;;;;17.80;65.67;94779.34;4197876;28;20494;-53
2023/06/20 02:39:19;;;;;;;11.55;8.48;;;;;;;17.83;65.59;94768.34;4209703;28;20044;-57
2023/06/20 02:41:21;;;;;;;13.00;8.48;;;;;;;17.87;65.55;94774.88;4202666;28;20131;-55
2023/06/20 02:43:23;;;;;;;10.13;8.55;;;;;;;17.92;65.43;94785.72;4204102;28;20048;-55
2023/06/20 02:45:25;;;;;;;10.60;8.38;;;;;;;17.95;65.39;94781.84;4210649;28;20047;-60
2023/06/20 02:47:49;;;;;;;10.80;8.75;;;;;;;17.99;65.25;94778.56;4202764;28;20135;-57
2023/06/20 02:50:09;;;;;;;10.15;9.05;;;;;;;18.03;65.41;94783.50;4207720;28;20048;-59
2023/06/20 02:52:40;;;;;;;11.93;8.80;;;;;;;18.08;65.38;94792.44;4211088;28;20418;-57
2023/06/20 02:55:17;;;;;;;12.27;9.32;;;;;;;18.01;65.47;94795.09;4211576;28;20066;-55
2023/06/20 02:57:20;;;;;;;13.52;9.50;;;;;;;17.79;66.92;94802.38;4210959;28;20140;-58
2023/06/20 02:59:25;;;;;;;14.00;9.27;;;;;;;17.70;66.50;94803.59;4210307;28;20044;-58
2023/06/20 03:01:28;;;;;;;12.80;8.65;;;;;;;17.46;65.67;94807.56;4203991;28;20048;-59
2023/06/20 03:03:34;;;;;;;10.00;7.90;;;;;;;17.52;66.22;94811.28;4209336;28;20040;-59
2023/06/20 03:05:45;;;;;;;12.85;8.75;;;;;;;17.63;65.56;94818.63;4204502;28;20498;-59
2023/06/20 03:07:47;;;;;;;13.52;8.77;;;;;;;17.69;65.02;94812.53;4206553;28;20059;-57
2023/06/20 03:09:50;;;;;;;14.87;8.87;;;;;;;17.55;66.44;94817.00;4208329;28;20244;-57
2023/06/20 03:11:52;;;;;;;11.07;9.25;;;;;;;17.62;66.20;94824.97;4209376;28;20277;-58
2023/06/20 03:13:53;;;;;;;11.98;9.55;;;;;;;17.56;66.96;94821.25;4211676;28;20045;-60
2023/06/20 03:15:55;;;;;;;15.02;9.70;;;;;;;17.59;66.96;94828.00;4210244;28;20049;-57
2023/06/20 03:18:00;;;;;;;13.77;8.95;;;;;;;17.70;66.67;94826.59;4198424;28;20057;-60
2023/06/20 03:20:11;;;;;;;10.82;9.23;;;;;;;17.83;65.78;94837.25;4195102;28;20110;-56
2023/06/20 03:22:12;;;;;;;10.82;9.20;;;;;;;17.88;65.98;94834.84;4196781;28;20049;-59
2023/06/20 03:24:14;;;;;;;17.70;9.75;;;;;;;17.88;66.05;94837.50;4196513;28;20460;-57
2023/06/20 03:26:17;;;;;;;11.05;8.77;;;;;;;17.94;65.82;94839.34;4203273;28;20048;-58
2023/06/20 03:28:19;;;;;;;14.23;9.60;;;;;;;18.00;65.56;94837.69;4211365;28;20052;-58
2023/06/20 03:30:21;;;;;;;12.23;10.15;;;;;;;18.10;65.41;94842.63;4209578;28;20063;-56
2023/06/20 03:32:22;;;;;;;13.05;10.00;;;;;;;18.13;65.32;94836.91;4210315;28;20052;-59
2023/06/20 03:34:24;;;;;;;13.15;9.02;;;;;;;18.15;65.53;94834.88;4202700;28;20072;-59
2023/06/20 03:36:26;;;;;;;14.20;9.70;;;;;;;18.16;65.45;94836.50;4207199;28;20137;-59
2023/06/20 03:38:27;;;;;;;16.40;9.65;;;;;;;18.19;65.20;94836.09;4209144;28;20560;-58
2023/06/20 03:40:29;;;;;;;10.57;9.10;;;;;;;18.21;64.67;94828.75;4211850;28;20078;-56
2023/06/20 03:42:31;;;;;;;13.38;8.50;;;;;;;18.27;64.45;94830.59;4211552;28;20040;-59
2023/06/20 03:44:33;;;;;;;11.18;8.88;;;;;;;18.32;63.96;94832.63;4207502;28;20531;-58
2023/06/20 03:46:34;;;;;;;12.07;9.02;;;;;;;18.33;63.95;94834.28;4208683;28;20051;-59
2023/06/20 03:48:36;;;;;;;9.90;8.88;;;;;;;18.33;64.16;94834.28;4210081;28;20048;-61
2023/06/20 03:50:38;;;;;;;16.20;9.77;;;;;;;18.23;63.79;94832.03;4206550;28;20475;-59
2023/06/20 03:52:39;;;;;;;18.63;9.52;;;;;;;18.18;64.48;94832.63;4204242;28;20559;-58
2023/06/20 03:54:41;;;;;;;17.05;9.50;;;;;;;18.14;64.19;94835.91;4209252;28;20055;-56
2023/06/20 03:56:43;;;;;;;13.05;8.70;;;;;;;18.11;64.47;94833.63;4211606;28;20058;-59
2023/06/20 03:58:45;;;;;;;11.60;8.52;;;;;;;18.13;64.70;94831.59;4201805;28;20052;-59
2023/06/20 04:00:47;;;;;;;12.60;8.88;;;;;;;18.21;64.01;94840.16;4210243;28;20060;-58
2023/06/20 04:02:49;;;;;;;16.83;9.38;;;;;;;18.27;64.06;94835.91;4204098;28;20048;-60
2023/06/20 04:04:51;;;;;;;20.15;9.77;;;;;;;18.28;63.93;94836.72;4195142;28;20421;-59
2023/06/20 04:06:53;;;;;;;15.13;8.82;;;;;;;18.20;63.92;94840.41;4199253;28;20044;-59
2023/06/20 04:08:54;;;;;;;14.90;9.85;;;;;;;18.20;63.99;94838.56;4200200;28;20367;-60
2023/06/20 04:10:56;;;;;;;12.35;9.85;;;;;;;18.22;63.92;94846.31;4210472;28;20063;-60
2023/06/20 04:13:01;;;;;;;16.88;9.90;;;;;;;18.22;63.84;94846.31;4201086;28;20080;-60
2023/06/20 04:15:03;;;;;;;16.45;9.75;;;;;;;18.17;64.17;94841.59;4209103;28;20060;-57
2023/06/20 04:17:04;;;;;;;10.75;9.25;;;;;;;18.14;64.35;94838.56;4207304;28;20109;-59
2023/06/20 04:19:06;;;;;;;13.80;9.25;;;;;;;18.10;64.52;94838.13;4197081;28;20056;-59
2023/06/20 04:21:08;;;;;;;10.30;9.27;;;;;;;18.04;64.50;94844.22;4198329;28;20590;-59
2023/06/20 04:23:09;;;;;;;13.13;8.82;;;;;;;18.08;64.61;94844.66;4211109;28;20076;-58
2023/06/20 04:25:14;;;;;;;13.15;9.50;;;;;;;18.08;64.52;94844.66;4210739;28;20102;-58
2023/06/20 04:27:16;;;;;;;11.10;8.60;;;;;;;18.14;63.87;94852.63;4210146;28;20051;-59
2023/06/20 04:29:18;;;;;;;12.07;9.07;;;;;;;18.15;64.15;94858.72;4210628;28;20040;-59
2023/06/20 04:31:19;;;;;;;12.32;8.93;;;;;;;18.17;64.21;94854.84;4210911;28;20549;-59
2023/06/20 04:33:22;;;;;;;11.27;8.85;;;;;;;18.17;64.17;94846.91;4209930;28;20063;-59
2023/06/20 04:35:24;;;;;;;13.88;9.10;;;;;;;18.25;64.15;94851.19;4198310;28;20115;-60
2023/06/20 04:37:29;;;;;;;13.07;9.43;;;;;;;18.41;64.10;94842.84;4210142;28;20047;-59
2023/06/20 04:39:31;;;;;;;15.35;9.30;;;;;;;18.41;63.58;94845.50;4208691;28;20063;-58
2023/06/20 04:41:32;;;;;;;13.05;8.85;;;;;;;18.50;63.84;94847.94;4200253;28;20059;-59
2023/06/20 04:43:35;;;;;;;13.95;9.40;;;;;;;18.59;63.55;94852.03;4209478;28;20051;-61
2023/06/20 04:45:38;;;;;;;16.58;10.40;;;;;;;18.65;63.13;94861.00;4209794;28;20139;-59
2023/06/20 04:47:41;;;;;;;14.50;10.55;;;;;;;18.62;63.31;94865.69;4199715;28;20048;-59
2023/06/20 04:49:43;;;;;;;14.80;10.93;;;;;;;18.63;63.97;94866.53;4207581;28;20045;-60
2023/06/20 04:51:47;;;;;;;19.27;10.70;;;;;;;18.63;64.06;94866.53;4210660;28;20073;-58
2023/06/20 04:53:49;;;;;;;13.98;10.30;;;;;;;18.64;63.61;94868.16;4202614;28;20052;-59
2023/06/20 04:55:52;;;;;;;14.02;10.90;;;;;;;18.77;63.56;94867.31;4197262;28;20064;-60
2023/06/20 04:57:54;;;;;;;14.57;10.13;;;;;;;18.79;62.80;94868.78;4208250;28;20044;-63
2023/06/20 04:59:56;;;;;;;19.92;10.60;;;;;;;18.65;63.04;94867.13;4209569;28;20044;-59
2023/06/20 05:01:57;;;;;;;12.77;9.85;;;;;;;18.73;63.41;94874.88;4206730;28;20052;-62
2023/06/20 05:03:59;;;;;;;16.60;11.77;;;;;;;18.67;63.33;94882.84;4203448;28;20040;-60
2023/06/20 05:06:01;;;;;;;16.05;10.52;;;;;;;18.66;63.07;94881.22;4210429;28;20440;-58
2023/06/20 05:08:03;;;;;;;14.73;10.32;;;;;;;18.51;64.02;94884.06;4207306;28;20566;-59
2023/06/20 05:10:06;;;;;;;15.40;11.43;;;;;;;18.45;64.20;94882.22;4206810;28;20431;-58
2023/06/20 05:12:07;;;;;;;11.02;9.73;;;;;;;18.50;64.15;94879.75;4206380;28;20053;-60
2023/06/20 05:14:09;;;;;;;15.98;12.05;;;;;;;18.60;63.80;94885.50;4210202;28;20089;-62
2023/06/20 05:16:11;;;;;;;16.63;11.13;;;;;;;18.73;64.07;94880.16;4206851;28;20180;-61
2023/06/20 05:18:13;;;;;;;14.50;10.80;;;;;;;18.85;63.68;94882.25;4204619;28;20090;-60
2023/06/20 05:20:14;;;;;;;12.70;10.23;;;;;;;19.01;63.13;94869.38;4210496;28;20040;-61
2023/06/20 05:22:16;;;;;;;14.82;10.75;;;;;;;19.22;62.83;94868.28;4213875;28;20048;-59
2023/06/20 05:24:18;;;;;;;14.57;10.38;;;;;;;19.45;62.48;94861.69;4213276;28;20040;-59
2023/06/20 05:26:19;;;;;;;13.13;10.48;;;;;;;19.65;61.83;94859.75;4214206;28;20047;-61
2023/06/20 05:28:21;;;;;;;15.32;10.13;;;;;;;19.83;61.09;94861.75;4204997;28;20607;-60
2023/06/20 05:30:23;;;;;;;13.05;10.13;;;;;;;19.99;60.53;94864.94;4209793;28;20070;-62
2023/06/20 05:32:25;;;;;;;16.42;10.93;;;;;;;20.15;60.00;94871.59;4212119;28;20048;-59
2023/06/20 05:34:27;;;;;;;16.70;11.40;;;;;;;20.26;59.54;94868.25;4206592;28;20044;-60
2023/06/20 05:36:29;;;;;;;13.88;11.70;;;;;;;20.32;59.44;94861.25;4209663;28;20070;-61
2023/06/20 05:38:31;;;;;;;13.98;10.77;;;;;;;20.38;59.01;94860.41;4213187;28;20044;-59
2023/06/20 05:40:33;;;;;;;14.90;10.80;;;;;;;20.41;59.05;94852.81;4204714;28;20474;-60
2023/06/20 05:42:34;;;;;;;15.70;10.82;;;;;;;20.46;58.64;94858.28;4195358;28;20049;-59
2023/06/20 05:44:36;;;;;;;18.75;11.13;;;;;;;20.52;58.75;94850.47;4212758;28;20058;-59
2023/06/20 05:46:38;;;;;;;17.17;11.25;;;;;;;20.47;58.63;94848.44;4213534;28;20067;-58
2023/06/20 05:48:40;;;;;;;15.35;10.77;;;;;;;20.47;58.84;94859.09;4204011;28;20048;-58
2023/06/20 05:50:42;;;;;;;23.95;11.15;;;;;;;20.37;59.03;94856.09;4209329;28;20409;-56
2023/06/20 05:52:44;;;;;;;13.52;10.20;;;;;;;20.45;59.45;94853.97;4199562;28;20426;-57
2023/06/20 05:54:46;;;;;;;13.80;10.40;;;;;;;20.57;59.37;94851.47;4213328;28;20095;-62
2023/06/20 05:56:47;;;;;;;14.63;10.63;;;;;;;20.72;59.08;94847.69;4204349;28;20052;-57
2023/06/20 05:58:49;;;;;;;14.35;11.35;;;;;;;20.77;59.14;94847.81;4203520;28;20052;-60
2023/06/20 06:00:51;;;;;;;15.95;10.60;;;;;;;20.90;59.16;94858.34;4199717;28;20102;-59
2023/06/20 06:02:53;;;;;;;18.45;11.57;;;;;;;20.96;58.87;94857.47;4206088;28;20052;-58
2023/06/20 06:04:55;;;;;;;16.65;10.77;;;;;;;20.81;59.15;94860.47;4197508;28;20052;-60
2023/06/20 06:06:56;;;;;;;17.83;11.43;;;;;;;20.67;59.85;94874.94;4199609;28;20059;-58
2023/06/20 06:08:58;;;;;;;20.95;11.93;;;;;;;20.55;59.93;94876.66;4210408;28;20044;-59
2023/06/20 06:11:00;;;;;;;16.63;11.93;;;;;;;20.09;61.00;94888.41;4208476;28;20445;-60
2023/06/20 06:13:02;;;;;;;17.95;11.98;;;;;;;20.02;61.51;94883.94;4200327;28;20125;-57
2023/06/20 06:15:08;;;;;;;20.13;12.32;;;;;;;19.83;61.54;94882.19;4199584;28;20244;-58
2023/06/20 06:17:09;;;;;;;22.45;12.48;;;;;;;19.93;60.89;94885.22;4211315;28;20097;-59
2023/06/20 06:19:11;;;;;;;17.52;12.43;;;;;;;20.11;60.57;94883.69;4204980;28;20086;-57
2023/06/20 06:21:13;;;;;;;18.75;12.57;;;;;;;20.23;60.35;94882.78;4206113;28;20585;-58
2023/06/20 06:23:15;;;;;;;20.73;12.43;;;;;;;20.35;59.92;94882.09;4213429;28;20509;-57
2023/06/20 06:25:17;;;;;;;18.90;13.43;;;;;;;20.50;59.62;94890.63;4212723;28;20052;-57
2023/06/20 06:27:19;;;;;;;26.90;13.35;;;;;;;20.53;59.55;94889.34;4209041;28;20049;-57
2023/06/20 06:29:21;;;;;;;21.38;12.70;;;;;;;20.63;59.50;94889.72;4213055;28;20040;-58
2023/06/20 06:31:26;;;;;;;21.42;12.27;;;;;;;20.78;58.93;94884.88;4212677;28;20094;-58
2023/06/20 06:33:28;;;;;;;21.55;12.10;;;;;;;21.04;58.34;94880.38;4207487;28;20083;-60
2023/06/20 06:35:30;;;;;;;19.25;11.73;;;;;;;21.22;58.04;94875.03;4207854;28;20056;-59
2023/06/20 06:37:32;;;;;;;24.77;12.13;;;;;;;21.31;57.66;94872.09;4205666;28;20040;-57
2023/06/20 06:39:36;;;;;;;16.95;12.30;;;;;;;21.41;57.75;94870.56;4208551;28;20050;-58
2023/06/20 06:41:38;;;;;;;;;;;;;;;21.54;57.50;94869.59;4202180;28;20086;-58
2023/06/20 06:43:39;;;;;;;18.00;11.73;;;;;;;21.76;57.67;94863.81;4199488;28;19927;-58
2023/06/20 06:45:41;;;;;;;18.80;12.73;;;;;;;21.96;57.25;94863.53;4198741;28;20110;-59
2023/06/20 06:47:43;;;;;;;24.80;13.63;;;;;;;22.15;56.16;94856.31;4197840;28;20102;-57
2023/06/20 06:49:45;;;;;;;25.80;13.80;;;;;;;22.20;56.52;94859.94;4206745;28;20097;-57
2023/06/20 06:51:46;;;;;;;23.42;14.00;;;;;;;22.00;56.36;94854.03;4204313;28;20052;-56
2023/06/20 06:53:51;;;;;;;22.80;13.00;;;;;;;22.12;55.92;94862.13;4211751;28;20052;-58
2023/06/20 06:55:53;;;;;;;19.75;11.63;;;;;;;22.27;55.91;94862.53;4208705;28;20094;-58
2023/06/20 06:57:55;;;;;;;17.58;11.20;;;;;;;22.45;54.91;94858.97;4211161;28;20048;-60
2023/06/20 06:59:57;;;;;;;15.07;10.50;;;;;;;22.51;54.74;94854.59;4206170;28;20055;-59
2023/06/20 07:01:58;;;;;;;15.02;11.68;;;;;;;22.54;54.52;94860.25;4212149;28;20133;-60
2023/06/20 07:04:00;;;;;;;16.05;11.52;;;;;;;22.54;54.72;94856.78;4206222;28;20087;-61
2023/06/20 07:06:03;;;;;;;18.15;10.60;;;;;;;22.66;54.29;94853.09;4211864;28;20048;-56
2023/06/20 07:08:05;;;;;;;14.40;10.82;;;;;;;22.75;54.29;94858.91;4205519;28;20055;-55
2023/06/20 07:10:07;;;;;;;17.20;10.75;;;;;;;22.82;53.97;94851.59;4209178;28;20063;-59
2023/06/20 07:12:09;;;;;;;17.05;10.15;;;;;;;22.81;53.52;94852.63;4212266;28;20050;-55
2023/06/20 07:14:10;;;;;;;14.02;9.25;;;;;;;22.80;52.81;94848.34;4204594;28;20040;-59
2023/06/20 07:16:12;;;;;;;13.50;9.02;;;;;;;22.80;52.55;94847.50;4205569;28;20052;-56
2023/06/20 07:18:14;;;;;;;19.50;9.80;;;;;;;22.92;52.23;94842.19;4205458;28;20119;-58
2023/06/20 07:20:17;;;;;;;16.67;10.55;;;;;;;23.09;52.59;94843.94;4205211;28;20112;-60
2023/06/20 07:22:20;;;;;;;16.17;10.65;;;;;;;22.95;51.81;94839.88;4202401;28;20044;-56
2023/06/20 07:24:22;;;;;;;27.40;15.48;;;;;;;22.90;52.01;94842.41;4210462;28;20101;-58
2023/06/20 07:26:23;;;;;;;22.75;13.35;;;;;;;22.66;53.16;94844.28;4211499;28;20048;-57
2023/06/20 07:28:26;;;;;;;20.65;10.70;;;;;;;22.65;51.41;94843.47;4212014;28;20055;-57
2023/06/20 07:30:28;;;;;;;15.43;8.57;;;;;;;22.82;51.78;94840.94;4200643;28;20489;-57
2023/06/20 07:32:30;;;;;;;16.15;9.23;;;;;;;22.95;51.46;94847.91;4200017;28;20040;-58
2023/06/20 07:34:32;;;;;;;20.83;11.50;;;;;;;22.92;51.22;94850.22;4201851;28;20051;-60
2023/06/20 07:36:34;;;;;;;24.02;12.80;;;;;;;22.94;51.73;94851.59;4197582;28;20049;-57
2023/06/20 07:38:36;;;;;;;12.15;8.75;;;;;;;22.96;51.00;94844.16;4198304;28;20060;-58
2023/06/20 07:40:40;;;;;;;9.60;7.75;;;;;;;23.19;50.61;94848.72;4206963;28;20049;-56
2023/06/20 07:42:41;;;;;;;15.48;7.13;;;;;;;23.39;49.32;94840.31;4201489;28;20058;-58
2023/06/20 07:44:43;;;;;;;11.35;7.55;;;;;;;23.61;49.26;94840.50;4198754;28;20554;-57
2023/06/20 07:46:45;;;;;;;14.00;8.50;;;;;;;23.71;48.80;94845.25;4201095;28;20054;-57
2023/06/20 07:48:48;;;;;;;17.17;7.95;;;;;;;23.84;48.48;94847.66;4209792;28;20048;-55
2023/06/20 07:50:49;;;;;;;11.25;7.72;;;;;;;23.90;49.13;94841.38;4211108;28;20541;-56
2023/06/20 07:52:51;;;;;;;9.73;7.07;;;;;;;23.58;45.79;94846.31;4198021;28;20108;-57
2023/06/20 07:54:55;;;;;;;14.73;8.70;;;;;;;23.51;47.53;94845.63;4196276;28;20052;-58
2023/06/20 07:56:57;;;;;;;7.95;6.72;;;;;;;23.63;46.96;94849.09;4197171;28;20055;-59
2023/06/20 07:58:59;;;;;;;10.68;7.80;;;;;;;23.83;45.59;94853.25;4208316;28;20080;-60
2023/06/20 08:01:01;;;;;;;11.88;7.93;;;;;;;23.90;46.01;94851.25;4208728;28;20046;-59
2023/06/20 08:03:03;;;;;;;8.50;6.40;;;;;;;24.17;45.42;94851.47;4197510;28;20083;-61
2023/06/20 08:05:08;;;;;;;8.88;6.35;;;;;;;24.43;44.64;94855.41;4196832;28;20048;-58
2023/06/20 08:07:10;;;;;;;7.55;6.10;;;;;;;24.56;44.12;94856.19;4207186;28;20044;-56
2023/06/20 08:09:11;;;;;;;10.95;6.95;;;;;;;24.66;44.58;94848.34;4203930;28;20545;-57
2023/06/20 08:11:13;;;;;;;9.25;6.75;;;;;;;24.86;45.13;94855.88;4204597;28;20072;-57
2023/06/20 08:13:15;;;;;;;12.80;7.05;;;;;;;25.00;44.74;94857.16;4203197;28;20047;-58
2023/06/20 08:15:17;;;;;;;17.25;7.30;;;;;;;25.00;44.61;94859.03;4200656;28;20406;-58
2023/06/20 08:17:18;;;;;;;8.15;6.65;;;;;;;25.02;44.46;94856.94;4207183;28;20048;-58
2023/06/20 08:19:20;;;;;;;9.98;6.72;;;;;;;25.08;44.52;94858.59;4195602;28;20103;-58
2023/06/20 08:21:22;;;;;;;12.05;6.90;;;;;;;25.21;44.75;94854.78;4207548;28;20502;-59
2023/06/20 08:23:25;;;;;;;7.35;6.13;;;;;;;25.37;44.33;94848.59;4205162;28;20077;-60
2023/06/20 08:25:27;;;;;;;10.63;7.00;;;;;;;25.43;43.11;94857.53;4209671;28;20083;-61
2023/06/20 08:27:29;;;;;;;7.88;6.32;;;;;;;25.49;43.35;94853.84;4207160;28;20478;-60
2023/06/20 08:29:31;;;;;;;7.63;5.90;;;;;;;25.53;42.34;94853.13;4201891;28;20351;-61
2023/06/20 08:31:36;;;;;;;6.68;5.90;;;;;;;25.48;41.24;94850.34;4205080;28;20048;-59
2023/06/20 08:33:38;;;;;;;9.35;7.55;;;;;;;25.39;41.12;94851.03;4197909;28;20099;-60
2023/06/20 08:35:40;;;;;;;7.82;6.55;;;;;;;25.37;40.97;94848.59;4201188;28;20048;-60
2023/06/20 08:37:41;;;;;;;7.72;6.22;;;;;;;24.84;41.85;94853.41;4203027;28;20109;-60
2023/06/20 08:39:43;;;;;;;8.20;6.20;;;;;;;24.71;42.06;94851.88;4208539;28;20421;-58
2023/06/20 08:41:45;;;;;;;9.52;7.40;;;;;;;24.80;42.48;94860.34;4209076;28;20052;-60
2023/06/20 08:43:47;;;;;;;8.02;5.78;;;;;;;24.98;42.26;94853.91;4209633;28;20052;-60
2023/06/20 08:45:48;;;;;;;13.45;6.82;;;;;;;25.03;42.58;94867.38;4209669;28;20052;-61
2023/06/20 08:47:50;;;;;;;9.48;7.25;;;;;;;24.73;42.30;94857.81;4206920;28;20055;-56
2023/06/20 08:49:52;;;;;;;7.20;6.25;;;;;;;24.63;43.05;94856.84;4208886;28;20465;-59
2023/06/20 08:51:58;;;;;;;8.77;6.15;;;;;;;24.87;43.04;94862.88;4210728;28;20052;-57
2023/06/20 08:54:01;;;;;;;8.77;6.72;;;;;;;25.01;42.83;94866.81;4207581;28;20051;-57
2023/06/20 08:56:03;;;;;;;8.57;6.38;;;;;;;25.14;42.59;94863.81;4209081;28;20150;-60
2023/06/20 08:58:11;;;;;;;7.25;6.03;;;;;;;25.37;42.94;94862.00;4201825;28;20040;-59
2023/06/20 09:00:17;;;;;;;9.77;6.55;;;;;;;25.24;42.68;94868.53;4206266;28;20095;-58
2023/06/20 09:02:19;;;;;;;12.73;6.57;;;;;;;25.37;42.95;94859.31;4205345;28;20506;-60
2023/06/20 09:04:20;;;;;;;11.77;6.60;;;;;;;25.42;41.86;94869.31;4195700;28;20048;-59
2023/06/20 09:06:32;;;;;;;9.98;7.05;;;;;;;25.69;42.48;94862.16;4210494;28;20040;-58
2023/06/20 09:08:39;;;;;;;8.38;6.97;;;;;;;25.99;42.01;94854.75;4210267;28;20105;-55
2023/06/20 09:10:41;;;;;;;7.32;5.97;;;;;;;26.09;41.85;94858.34;4202346;28;20048;-62
2023/06/20 09:12:47;;;;;;;7.57;6.80;;;;;;;26.24;41.94;94857.72;4205103;28;20136;-59
2023/06/20 09:14:50;;;;;;;8.00;6.70;;;;;;;26.41;42.37;94857.56;4200245;28;20075;-57
2023/06/20 09:16:52;;;;;;;8.00;6.93;;;;;;;26.46;41.95;94854.94;4205821;28;20044;-59
2023/06/20 09:19:00;;;;;;;7.75;6.63;;;;;;;26.43;42.66;94854.63;4205019;28;20398;-61
2023/06/20 09:21:03;;;;;;;11.73;7.28;;;;;;;25.91;42.79;94851.44;4197533;28;20058;-57
2023/06/20 09:23:04;;;;;;;8.43;6.97;;;;;;;25.86;43.34;94847.88;4201333;28;20050;-57
2023/06/20 09:25:07;;;;;;;10.95;7.53;;;;;;;25.27;44.43;94851.13;4203444;28;20048;-58
2023/06/20 09:27:09;;;;;;;10.05;7.47;;;;;;;25.22;44.79;94859.91;4199848;28;20049;-57
2023/06/20 09:29:14;;;;;;;9.10;7.18;;;;;;;25.12;45.31;94857.88;4200468;28;20083;-57
2023/06/20 09:31:17;;;;;;;9.30;6.63;;;;;;;25.31;44.21;94847.72;4208668;28;20040;-58
2023/06/20 09:33:19;;;;;;;7.47;6.22;;;;;;;25.63;43.76;94847.03;4197749;28;20470;-58
2023/06/20 09:35:21;;;;;;;6.95;6.20;;;;;;;25.94;43.02;94845.56;4208212;28;20483;-57